createdAt,value
2022-09-20T00:10:10.534Z,11.7
2022-09-20T00:24:10.566Z,11.2
2022-09-20T00:38:10.580Z,11.0
2022-09-20T00:52:10.598Z,10.6
2022-09-20T01:06:10.634Z,10.8
2022-09-20T01:20:10.612Z,11.2
2022-09-20T01:34:10.639Z,13.2
2022-09-20T01:48:10.681Z,13.3
2022-09-20T02:02:10.648Z,12.5
2022-09-20T02:16:10.833Z,11.3
2022-09-20T02:30:10.847Z,10.8
2022-09-20T02:44:10.891Z,10.2
2022-09-20T02:58:10.850Z,10.5
2022-09-20T03:12:10.839Z,10.1
2022-09-20T03:26:10.880Z,9.6
2022-09-20T03:40:10.868Z,9.7
2022-09-20T03:54:10.936Z,9.5
2022-09-20T04:08:10.882Z,9.4
2022-09-20T04:22:10.859Z,9.2
2022-09-20T04:36:10.876Z,9.2
2022-09-20T04:50:10.893Z,9.3
2022-09-20T05:05:10.908Z,10.3
2022-09-20T05:20:10.912Z,9.8
2022-09-20T05:35:10.931Z,9.6
2022-09-20T05:50:10.933Z,9.5
2022-09-20T06:05:10.907Z,9.9
2022-09-20T06:20:10.961Z,10.0
2022-09-20T06:36:10.936Z,11.5
2022-09-20T06:51:10.967Z,11.8
2022-09-20T07:07:10.967Z,14.2
2022-09-20T07:22:11.045Z,16.9
2022-09-20T07:37:11.092Z,20.3
2022-09-20T07:52:11.092Z,21.0
2022-09-20T08:07:11.099Z,21.8
2022-09-20T08:22:11.109Z,22.2
2022-09-20T08:37:11.117Z,23.0
2022-09-20T08:52:11.095Z,22.5
2022-09-20T09:07:11.119Z,23.5
2022-09-20T09:22:11.162Z,23.2
2022-09-20T09:37:11.241Z,23.2
2022-09-20T09:52:11.233Z,22.7
2022-09-20T10:07:11.221Z,22.0
2022-09-20T10:22:11.257Z,21.4
2022-09-20T10:37:11.322Z,21.7
2022-09-20T10:52:11.282Z,21.6
2022-09-20T11:07:11.264Z,21.5
2022-09-20T11:22:11.259Z,22.0
2022-09-20T11:37:11.296Z,22.7
2022-09-20T11:52:11.316Z,22.8
2022-09-20T12:07:14.492Z,24.5
2022-09-20T12:23:11.358Z,24.6
2022-09-20T12:38:11.362Z,24.5
2022-09-20T12:53:11.342Z,24.3
2022-09-20T13:08:11.352Z,23.0
2022-09-20T13:23:11.347Z,25.0
2022-09-20T13:38:11.338Z,24.4
2022-09-20T13:53:16.787Z,25.6
2022-09-20T14:08:11.378Z,24.4
2022-09-20T14:23:11.402Z,24.8
2022-09-20T14:38:11.406Z,23.9
2022-09-20T14:53:11.417Z,24.7
2022-09-20T15:08:11.428Z,23.6
2022-09-20T15:23:11.452Z,23.4
2022-09-20T15:38:11.442Z,24.4
2022-09-20T15:53:11.412Z,21.7
2022-09-20T16:08:11.463Z,20.7
2022-09-20T16:23:11.424Z,19.9
2022-09-20T16:38:11.607Z,19.1
2022-09-20T16:54:11.465Z,19.0
2022-09-20T17:09:11.568Z,18.1
2022-09-20T17:24:11.466Z,17.2
2022-09-20T17:39:11.509Z,16.4
2022-09-20T17:54:11.537Z,15.8
2022-09-20T18:09:11.489Z,15.5
2022-09-20T18:24:11.573Z,15.0
2022-09-20T18:38:11.517Z,14.8
2022-09-20T18:52:11.517Z,15.1
2022-09-20T19:06:11.512Z,15.4
2022-09-20T19:20:11.665Z,15.3
2022-09-20T19:34:11.560Z,15.0
2022-09-20T19:48:11.591Z,14.8
2022-09-20T20:02:11.697Z,14.5
2022-09-20T20:16:11.767Z,14.3
2022-09-20T20:30:11.678Z,13.9
2022-09-20T20:44:11.729Z,13.6
2022-09-20T20:58:11.740Z,13.5
2022-09-20T21:12:11.727Z,13.8
2022-09-20T21:26:11.727Z,14.3
2022-09-20T21:40:11.770Z,14.8
2022-09-20T21:54:11.919Z,14.5
2022-09-20T22:08:11.833Z,14.0
2022-09-20T22:22:11.766Z,14.0
2022-09-20T22:36:11.763Z,14.9
2022-09-20T22:50:11.778Z,15.7
2022-09-20T23:04:11.788Z,15.0
2022-09-20T23:18:11.780Z,14.6
2022-09-20T23:32:11.801Z,14.5
2022-09-20T23:46:11.802Z,14.9
